| time (UTC) | temp F | wind direction | speed knots | gust knots | rain 1hr in | rain 24hr in | rain mn in | humidity % | barometer mb |
| 20260507142518 | 51 | 248 | 3.5 | 7.0 | 0.00 | 0.00 | 0.00 | 81 | 1020.5 |
| 20260507141517 | 51 | 248 | 4.3 | 7.0 | 0.00 | 0.00 | 0.00 | 81 | 1020.4 |
| 20260507140517 | 50 | 248 | 3.5 | 6.1 | 0.00 | 0.00 | 0.00 | 81 | 1020.5 |
| 20260507135617 | 50 | 248 | 4.3 | 7.0 | 0.00 | 0.00 | 0.00 | 81 | 1020.3 |
| 20260507134517 | 50 | 248 | 2.6 | 5.2 | 0.00 | 0.00 | 0.00 | 81 | 1020.2 |
| 20260507133517 | 50 | 248 | 2.6 | 7.0 | 0.00 | 0.00 | 0.00 | 81 | 1020.2 |
| 20260507132517 | 50 | 270 | 2.6 | 6.1 | 0.00 | 0.00 | 0.00 | 82 | 1020.2 |
| 20260507131517 | 50 | 270 | 2.6 | 4.3 | 0.00 | 0.00 | 0.00 | 82 | 1020.2 |
| 20260507130517 | 50 | 270 | 1.7 | 4.3 | 0.00 | 0.00 | 0.00 | 81 | 1020.1 |
| 20260507125517 | 50 | 248 | 2.6 | 5.2 | 0.00 | 0.00 | 0.00 | 82 | 1020.2 |
| 20260507124516 | 50 | 270 | 2.6 | 4.3 | 0.00 | 0.00 | 0.00 | 82 | 1020.2 |
| 20260507123538 | 50 | 270 | 1.7 | 4.3 | 0.00 | 0.00 | 0.00 | 81 | 1020.2 |
| 20260507122517 | 50 | 248 | 2.6 | 5.2 | 0.00 | 0.00 | 0.00 | 81 | 1020.3 |
| 20260507121518 | 50 | 270 | 1.7 | 5.2 | 0.00 | 0.00 | 0.00 | 81 | 1020.4 |
| 20260507120517 | 50 | 270 | 0.9 | 2.6 | 0.00 | 0.00 | 0.00 | 82 | 1020.5 |
| 20260507115517 | 50 | 270 | 0.9 | 3.5 | 0.00 | 0.00 | 0.00 | 82 | 1020.6 |
| 20260507114517 | 50 | 0.0 | 2.6 | 0.00 | 0.00 | 0.00 | 81 | 1020.7 | |
| 20260507113517 | 51 | 270 | 1.7 | 3.5 | 0.00 | 0.00 | 0.00 | 81 | 1020.7 |
| 20260507112537 | 51 | 270 | 1.7 | 3.5 | 0.00 | 0.00 | 0.00 | 81 | 1020.8 |
| 20260507111517 | 51 | 270 | 1.7 | 5.2 | 0.00 | 0.00 | 0.00 | 81 | 1020.7 |
| 20260507110517 | 51 | 248 | 1.7 | 4.3 | 0.00 | 0.00 | 0.00 | 80 | 1020.8 |
| 20260507105536 | 51 | 270 | 1.7 | 4.3 | 0.00 | 0.00 | 0.00 | 80 | 1020.8 |
| 20260507104517 | 51 | 248 | 2.6 | 4.3 | 0.00 | 0.00 | 0.00 | 80 | 1020.8 |
| 20260507103517 | 52 | 248 | 2.6 | 4.3 | 0.00 | 0.00 | 0.00 | 80 | 1020.9 |
| 20260507102517 | 52 | 248 | 1.7 | 5.2 | 0.00 | 0.00 | 0.00 | 80 | 1020.9 |
| 20260507101517 | 52 | 270 | 0.9 | 3.5 | 0.00 | 0.00 | 0.00 | 81 | 1020.9 |
| 20260507100517 | 52 | 270 | 1.7 | 4.3 | 0.00 | 0.00 | 0.00 | 80 | 1020.8 |
| 20260507095517 | 52 | 248 | 2.6 | 4.3 | 0.00 | 0.00 | 0.00 | 81 | 1020.9 |
| 20260507094516 | 52 | 248 | 1.7 | 4.3 | 0.00 | 0.00 | 0.00 | 81 | 1020.8 |
| 20260507093516 | 52 | 270 | 1.7 | 4.3 | 0.00 | 0.00 | 0.00 | 81 | 1020.8 |
| 20260507092537 | 52 | 270 | 2.6 | 3.5 | 0.00 | 0.00 | 0.00 | 82 | 1020.8 |
| 20260507091538 | 52 | 248 | 3.5 | 7.8 | 0.00 | 0.00 | 0.00 | 81 | 1020.7 |
| 20260507090538 | 52 | 248 | 4.3 | 7.0 | 0.00 | 0.00 | 0.00 | 82 | 1020.7 |
| 20260507085517 | 52 | 270 | 2.6 | 5.2 | 0.00 | 0.00 | 0.00 | 82 | 1020.7 |
| 20260507084517 | 53 | 270 | 3.5 | 6.1 | 0.00 | 0.00 | 0.00 | 82 | 1020.8 |
| 20260507083517 | 53 | 270 | 2.6 | 4.3 | 0.00 | 0.00 | 0.00 | 82 | 1020.7 |
| 20260507082517 | 53 | 248 | 2.6 | 6.1 | 0.00 | 0.00 | 0.00 | 82 | 1020.8 |
| 20260507081537 | 53 | 248 | 2.6 | 6.1 | 0.00 | 0.00 | 0.00 | 82 | 1020.7 |
| 20260507080538 | 53 | 270 | 2.6 | 4.3 | 0.00 | 0.00 | 0.00 | 82 | 1020.8 |
| 20260507075516 | 53 | 248 | 3.5 | 6.1 | 0.00 | 0.00 | 0.00 | 82 | 1020.8 |
| 20260507074517 | 53 | 248 | 3.5 | 7.8 | 0.00 | 0.00 | 0.00 | 82 | 1020.8 |
| 20260507073516 | 53 | 248 | 4.3 | 9.6 | 0.00 | 0.00 | 0.00 | 82 | 1020.8 |
| 20260507072538 | 54 | 248 | 4.3 | 8.7 | 0.00 | 0.00 | 0.00 | 83 | 1020.7 |
| 20260507071516 | 54 | 248 | 3.5 | 6.1 | 0.00 | 0.00 | 0.00 | 83 | 1020.6 |
| 20260507070517 | 54 | 270 | 2.6 | 5.2 | 0.00 | 0.00 | 0.00 | 83 | 1020.7 |
| 20260507065515 | 54 | 248 | 3.5 | 6.1 | 0.00 | 0.00 | 0.00 | 83 | 1020.7 |
| 20260507064516 | 54 | 248 | 4.3 | 7.0 | 0.00 | 0.00 | 0.00 | 83 | 1020.6 |
| 20260507063516 | 54 | 270 | 2.6 | 5.2 | 0.00 | 0.00 | 0.00 | 83 | 1020.6 |
| 20260507062517 | 55 | 248 | 4.3 | 7.8 | 0.00 | 0.00 | 0.00 | 82 | 1020.7 |
| 20260507061516 | 55 | 248 | 4.3 | 6.1 | 0.00 | 0.00 | 0.00 | 82 | 1020.7 |
| 20260507060516 | 55 | 248 | 3.5 | 7.0 | 0.00 | 0.00 | 0.00 | 81 | 1020.7 |
| 20260507055518 | 55 | 248 | 3.5 | 6.1 | 0.00 | 0.00 | 0.00 | 81 | 1020.7 |
| 20260507054517 | 55 | 248 | 5.2 | 7.8 | 0.00 | 0.00 | 0.00 | 82 | 1020.7 |
| 20260507053516 | 55 | 270 | 2.6 | 5.2 | 0.00 | 0.00 | 0.00 | 81 | 1020.7 |
| 20260507052517 | 55 | 293 | 0.9 | 3.5 | 0.00 | 0.00 | 0.00 | 81 | 1020.7 |
| 20260507051516 | 55 | 270 | 3.5 | 6.1 | 0.00 | 0.00 | 0.00 | 81 | 1020.7 |
| 20260507050517 | 55 | 270 | 2.6 | 5.2 | 0.00 | 0.00 | 0.00 | 81 | 1020.6 |
| 20260507045516 | 55 | 270 | 3.5 | 5.2 | 0.00 | 0.00 | 0.00 | 81 | 1020.7 |
| 20260507044517 | 55 | 270 | 2.6 | 5.2 | 0.00 | 0.00 | 0.00 | 81 | 1020.7 |
| 20260507043517 | 55 | 270 | 1.7 | 3.5 | 0.00 | 0.00 | 0.00 | 81 | 1020.7 |
| 20260507042517 | 55 | 270 | 1.7 | 4.3 | 0.00 | 0.00 | 0.00 | 80 | 1020.7 |
| 20260507041539 | 56 | 270 | 3.5 | 5.2 | 0.00 | 0.00 | 0.00 | 80 | 1020.7 |
| 20260507040517 | 56 | 270 | 0.9 | 3.5 | 0.00 | 0.00 | 0.00 | 80 | 1020.6 |
| 20260507035517 | 56 | 270 | 3.5 | 6.1 | 0.00 | 0.00 | 0.00 | 80 | 1020.5 |
| 20260507034517 | 56 | 293 | 1.7 | 4.3 | 0.00 | 0.00 | 0.00 | 80 | 1020.4 |
| 20260507033600 | 56 | 270 | 2.6 | 5.2 | 0.00 | 0.00 | 0.00 | 79 | 1020.3 |
| 20260507032517 | 56 | 270 | 2.6 | 4.3 | 0.00 | 0.00 | 0.00 | 80 | 1020.3 |
| 20260507031517 | 56 | 270 | 2.6 | 4.3 | 0.00 | 0.00 | 0.00 | 79 | 1020.1 |
| 20260507030515 | 56 | 270 | 0.9 | 3.5 | 0.00 | 0.00 | 0.00 | 80 | 1020.0 |
| 20260507025517 | 57 | 293 | 1.7 | 3.5 | 0.00 | 0.00 | 0.00 | 80 | 1020.0 |
| 20260507024535 | 57 | 270 | 2.6 | 6.1 | 0.00 | 0.00 | 0.00 | 79 | 1020.1 |
| 20260507023518 | 57 | 270 | 2.6 | 5.2 | 0.00 | 0.00 | 0.00 | 80 | 1020.0 |
| 20260507022515 | 57 | 270 | 2.6 | 4.3 | 0.00 | 0.00 | 0.00 | 80 | 1019.9 |
| 20260507021518 | 57 | 270 | 2.6 | 4.3 | 0.00 | 0.00 | 0.00 | 80 | 1019.9 |
| 20260507020518 | 57 | 293 | 0.9 | 3.5 | 0.00 | 0.00 | 0.00 | 80 | 1019.9 |
| 20260507015517 | 57 | 315 | 0.9 | 2.6 | 0.00 | 0.00 | 0.00 | 80 | 1019.9 |
| 20260507014518 | 57 | 0.0 | 2.6 | 0.00 | 0.00 | 0.00 | 80 | 1019.9 | |
| 20260507013559 | 57 | 315 | 1.7 | 3.5 | 0.00 | 0.00 | 0.00 | 79 | 1019.9 |
| 20260507012517 | 57 | 338 | 2.6 | 4.3 | 0.00 | 0.00 | 0.00 | 79 | 1019.8 |
| 20260507011517 | 58 | 338 | 3.5 | 5.2 | 0.00 | 0.00 | 0.00 | 78 | 1019.9 |
| 20260507010518 | 58 | 338 | 2.6 | 4.3 | 0.00 | 0.00 | 0.00 | 78 | 1019.9 |
| 20260507005557 | 58 | 315 | 0.9 | 2.6 | 0.00 | 0.00 | 0.00 | 78 | 1019.9 |
| 20260507004518 | 58 | 315 | 2.6 | 3.5 | 0.00 | 0.00 | 0.00 | 77 | 1020.0 |
| 20260507003517 | 59 | 315 | 1.7 | 4.3 | 0.00 | 0.00 | 0.00 | 76 | 1020.1 |
| 20260507002517 | 59 | 270 | 1.7 | 5.2 | 0.00 | 0.00 | 0.00 | 77 | 1020.1 |
| 20260507001518 | 59 | 315 | 0.9 | 2.6 | 0.00 | 0.00 | 0.00 | 77 | 1020.0 |
| 20260507000517 | 59 | 315 | 1.7 | 3.5 | 0.00 | 0.00 | 0.00 | 77 | 1019.9 |
| 20260506235517 | 59 | 315 | 0.9 | 1.7 | 0.00 | 0.00 | 0.00 | 77 | 1020.0 |
| 20260506234519 | 58 | 315 | 1.7 | 3.5 | 0.00 | 0.00 | 0.00 | 75 | 1019.9 |
| 20260506233517 | 58 | 315 | 0.9 | 3.5 | 0.00 | 0.00 | 0.00 | 76 | 1020.0 |
| 20260506232537 | 58 | 0.0 | 0.9 | 0.00 | 0.00 | 0.00 | 76 | 1019.9 | |
| 20260506231517 | 58 | 315 | 0.9 | 2.6 | 0.00 | 0.00 | 0.00 | 76 | 1020.1 |
| 20260506230517 | 58 | 315 | 0.9 | 2.6 | 0.00 | 0.00 | 0.00 | 76 | 1020.0 |
| 20260506225538 | 58 | 270 | 1.7 | 3.5 | 0.00 | 0.00 | 0.00 | 76 | 1020.0 |
| 20260506224517 | 58 | 315 | 0.9 | 2.6 | 0.00 | 0.00 | 0.00 | 76 | 1020.1 |
| 20260506223517 | 59 | 293 | 0.9 | 2.6 | 0.00 | 0.00 | 0.00 | 77 | 1020.2 |
| 20260506222518 | 59 | 293 | 0.9 | 3.5 | 0.00 | 0.00 | 0.00 | 77 | 1020.3 |
| 20260506221517 | 59 | 270 | 2.6 | 6.1 | 0.00 | 0.00 | 0.00 | 77 | 1020.4 |
| 20260506220517 | 58 | 270 | 2.6 | 5.2 | 0.00 | 0.00 | 0.00 | 77 | 1020.3 |
| 20260506215537 | 58 | 248 | 5.2 | 7.8 | 0.00 | 0.00 | 0.00 | 77 | 1020.4 |
| 20260506214537 | 58 | 248 | 3.5 | 7.0 | 0.00 | 0.00 | 0.00 | 78 | 1020.4 |
| 20260506213517 | 58 | 270 | 5.2 | 9.6 | 0.00 | 0.00 | 0.00 | 78 | 1020.5 |
| 20260506212516 | 58 | 270 | 4.3 | 8.7 | 0.00 | 0.00 | 0.00 | 78 | 1020.4 |
| 20260506211517 | 58 | 248 | 6.1 | 10.4 | 0.00 | 0.00 | 0.00 | 79 | 1020.4 |
| 20260506210517 | 58 | 270 | 5.2 | 7.8 | 0.00 | 0.00 | 0.00 | 79 | 1020.3 |
| 20260506205518 | 58 | 270 | 4.3 | 9.6 | 0.00 | 0.00 | 0.00 | 79 | 1020.4 |
| 20260506204517 | 58 | 248 | 5.2 | 9.6 | 0.00 | 0.00 | 0.00 | 80 | 1020.3 |
| 20260506203518 | 58 | 248 | 4.3 | 8.7 | 0.00 | 0.00 | 0.00 | 80 | 1020.2 |
| 20260506202518 | 57 | 248 | 3.5 | 6.1 | 0.00 | 0.00 | 0.00 | 81 | 1020.1 |
| 20260506201517 | 57 | 248 | 4.3 | 7.8 | 0.00 | 0.00 | 0.00 | 82 | 1020.2 |
| 20260506200517 | 57 | 248 | 4.3 | 7.0 | 0.00 | 0.00 | 0.00 | 82 | 1020.2 |
| 20260506195518 | 57 | 270 | 2.6 | 4.3 | 0.00 | 0.00 | 0.00 | 83 | 1020.2 |
| 20260506194517 | 57 | 248 | 4.3 | 7.8 | 0.00 | 0.00 | 0.00 | 82 | 1020.1 |
| 20260506193517 | 57 | 248 | 4.3 | 7.8 | 0.00 | 0.00 | 0.00 | 83 | 1020.0 |
| 20260506192518 | 56 | 248 | 3.5 | 7.0 | 0.00 | 0.00 | 0.00 | 83 | 1020.0 |
| 20260506191517 | 56 | 248 | 3.5 | 7.0 | 0.00 | 0.00 | 0.00 | 83 | 1020.0 |
| 20260506190620 | 56 | 248 | 2.6 | 6.1 | 0.00 | 0.00 | 0.00 | 83 | 1020.1 |
| 20260506185517 | 56 | 248 | 3.5 | 5.2 | 0.00 | 0.00 | 0.00 | 83 | 1020.1 |
| 20260506184518 | 56 | 270 | 2.6 | 4.3 | 0.00 | 0.00 | 0.00 | 84 | 1020.1 |
| 20260506183517 | 56 | 270 | 2.6 | 6.1 | 0.00 | 0.00 | 0.00 | 83 | 1019.9 |
| 20260506182517 | 56 | 270 | 2.6 | 5.2 | 0.00 | 0.00 | 0.00 | 84 | 1019.8 |
| 20260506181518 | 56 | 248 | 3.5 | 6.1 | 0.00 | 0.00 | 0.00 | 83 | 1019.8 |
| 20260506180538 | 56 | 270 | 3.5 | 6.1 | 0.00 | 0.00 | 0.00 | 84 | 1019.9 |
| 20260506175517 | 55 | 248 | 4.3 | 7.0 | 0.00 | 0.00 | 0.00 | 84 | 1019.8 |
| 20260506174517 | 55 | 270 | 3.5 | 6.1 | 0.00 | 0.00 | 0.00 | 85 | 1019.8 |
| 20260506173558 | 55 | 270 | 3.5 | 7.0 | 0.00 | 0.00 | 0.00 | 85 | 1020.0 |
| 20260506172537 | 55 | 270 | 3.5 | 5.2 | 0.00 | 0.00 | 0.00 | 85 | 1019.8 |
| 20260506171537 | 55 | 270 | 3.5 | 6.1 | 0.00 | 0.00 | 0.00 | 85 | 1019.7 |
| 20260506170537 | 55 | 270 | 2.6 | 7.0 | 0.00 | 0.00 | 0.00 | 85 | 1019.8 |
| 20260506165518 | 55 | 248 | 2.6 | 4.3 | 0.00 | 0.00 | 0.00 | 85 | 1019.6 |
| 20260506164537 | 55 | 270 | 3.5 | 6.1 | 0.00 | 0.00 | 0.00 | 85 | 1019.4 |
| 20260506163517 | 54 | 248 | 1.7 | 6.1 | 0.00 | 0.00 | 0.00 | 86 | 1019.4 |
| 20260506162518 | 54 | 248 | 3.5 | 6.1 | 0.00 | 0.00 | 0.00 | 85 | 1019.3 |
| 20260506161517 | 54 | 248 | 3.5 | 6.1 | 0.00 | 0.00 | 0.00 | 86 | 1019.4 |
| 20260506160517 | 54 | 270 | 3.5 | 6.1 | 0.00 | 0.00 | 0.00 | 86 | 1019.6 |
| 20260506155517 | 54 | 270 | 4.3 | 7.0 | 0.00 | 0.00 | 0.00 | 86 | 1019.6 |
| 20260506154536 | 54 | 248 | 4.3 | 7.8 | 0.00 | 0.00 | 0.00 | 87 | 1019.4 |
| 20260506153518 | 53 | 248 | 3.5 | 5.2 | 0.00 | 0.00 | 0.00 | 87 | 1019.3 |
| 20260506152537 | 53 | 248 | 4.3 | 6.1 | 0.00 | 0.00 | 0.00 | 87 | 1019.4 |
| 20260506151539 | 53 | 248 | 5.2 | 8.7 | 0.00 | 0.00 | 0.00 | 88 | 1019.5 |
| 20260506150557 | 53 | 270 | 4.3 | 7.0 | 0.00 | 0.00 | 0.00 | 88 | 1019.6 |
| 20260506145517 | 53 | 248 | 5.2 | 7.8 | 0.00 | 0.00 | 0.00 | 88 | 1019.4 |
| 20260506144517 | 53 | 248 | 4.3 | 7.0 | 0.00 | 0.00 | 0.00 | 88 | 1019.1 |
| 20260506143517 | 53 | 248 | 2.6 | 7.0 | 0.00 | 0.00 | 0.00 | 88 | 1019.0 |